Time;durP1;ratioP1;P1;durP2;ratioP2;P2;SDS_P1;SDS_P2;PMS_P1;PMS_P2;Temp;Humidity;BMP_temperature;BMP_pressure;BME280_temperature;BME280_humidity;BME280_pressure;Samples;Min_cycle;Max_cycle;Signal;HPM_P1;HPM_P2
2023/07/30 00:01:24;;;;;;;;;;;23.10;99.90;;;;;;5093959;28;20609;-70
2023/07/30 00:03:51;;;;;;;;;;;23.40;99.90;;;;;;5092307;28;20659;-70
2023/07/30 00:06:17;;;;;;;;;;;23.80;99.90;;;;;;5094049;28;20592;-70
2023/07/30 00:08:44;;;;;;;;;;;24.50;99.90;;;;;;5094325;28;20629;-71
2023/07/30 00:11:11;;;;;;;;;;;24.70;99.90;;;;;;5094232;28;20155;-70
2023/07/30 00:13:37;;;;;;;;;;;24.40;99.90;;;;;;5094482;28;20267;-71
2023/07/30 00:16:04;;;;;;;;;;;24.50;99.90;;;;;;5094076;28;20147;-71
2023/07/30 00:18:31;;;;;;;;;;;24.80;99.90;;;;;;5094233;28;20131;-71
2023/07/30 00:20:57;;;;;;;;;;;24.90;99.90;;;;;;5094578;28;20660;-72
2023/07/30 00:23:24;;;;;;;;;;;25.10;99.90;;;;;;5094376;28;20643;-71
2023/07/30 00:25:51;;;;;;;;;;;25.40;99.90;;;;;;5093932;28;20496;-72
2023/07/30 00:28:17;;;;;;;;;;;25.40;99.90;;;;;;5094096;28;20542;-72
2023/07/30 00:30:44;;;;;;;;;;;25.40;99.90;;;;;;5094202;28;20509;-71
2023/07/30 00:33:11;;;;;;;;;;;25.70;99.90;;;;;;5093979;28;20584;-71
2023/07/30 00:35:38;;;;;;;;;;;26.10;99.90;;;;;;5093924;28;20173;-72
2023/07/30 00:38:05;;;;;;;;;;;25.90;99.90;;;;;;5093877;28;20155;-74
2023/07/30 00:40:32;;;;;;;;;;;25.30;99.90;;;;;;5094069;28;20216;-72
2023/07/30 00:42:58;;;;;;;;;;;26.00;99.90;;;;;;5075871;28;20667;-72
2023/07/30 00:45:25;;;;;;;;;;;26.20;99.90;;;;;;5094041;28;20169;-71
2023/07/30 00:47:52;;;;;;;;;;;25.40;99.90;;;;;;5073578;28;20643;-70
2023/07/30 00:50:19;;;;;;;;;;;25.80;99.90;;;;;;5074943;28;20173;-71
2023/07/30 00:52:46;;;;;;;;;;;25.70;99.90;;;;;;5083162;28;20152;-71
2023/07/30 00:55:13;;;;;;;;;;;25.80;99.90;;;;;;5092450;28;20158;-71
2023/07/30 00:57:41;;;;;;;;;;;25.70;99.90;;;;;;5064525;28;20152;-72
2023/07/30 01:00:09;;;;;;;;;;;26.00;99.90;;;;;;5091146;28;20176;-71
2023/07/30 01:02:36;;;;;;;;;;;26.00;99.90;;;;;;5091828;28;20225;-70
2023/07/30 01:05:09;;;;;;;;;;;26.20;99.90;;;;;;5091442;28;20555;-71
2023/07/30 01:07:38;;;;;;;;;;;26.20;99.90;;;;;;5092420;28;20151;-69
2023/07/30 01:10:09;;;;;;;;;;;26.40;99.90;;;;;;5071396;28;20220;-70
2023/07/30 01:12:36;;;;;;;;;;;26.50;99.90;;;;;;5071453;28;20233;-70
2023/07/30 01:15:04;;;;;;;;;;;26.90;99.90;;;;;;5071684;28;20171;-72
2023/07/30 01:17:34;;;;;;;;;;;26.80;99.90;;;;;;5071932;28;20623;-70
2023/07/30 01:20:04;;;;;;;;;;;27.10;99.90;;;;;;5080141;28;20627;-69
2023/07/30 01:22:30;;;;;;;;;;;27.20;99.90;;;;;;5078305;28;20158;-70
2023/07/30 01:25:00;;;;;;;;;;;27.50;97.70;;;;;;5079125;28;20724;-71
2023/07/30 01:27:37;;;;;;;;;;;27.70;98.70;;;;;;5091970;28;20648;-70
2023/07/30 01:30:08;;;;;;;;;;;27.20;95.10;;;;;;5092343;28;20192;-70
2023/07/30 01:32:35;;;;;;;;;;;27.10;96.30;;;;;;5091918;28;20230;-70
2023/07/30 01:35:02;;;;;;;;;;;26.90;94.70;;;;;;5090895;28;20607;-71
2023/07/30 01:37:30;;;;;;;;;;;26.30;97.30;;;;;;5091401;28;20154;-70
2023/07/30 01:39:56;;;;;;;;;;;26.90;98.50;;;;;;5091487;28;20149;-69
2023/07/30 01:42:28;;;;;;;;;;;26.80;95.40;;;;;;5091748;28;20625;-70
2023/07/30 01:44:55;;;;;;;;;;;26.80;95.40;;;;;;5091895;28;20193;-72
2023/07/30 01:47:21;;;;;;;;;;;26.80;96.20;;;;;;5091548;28;20220;-71
2023/07/30 01:49:48;;;;;;;;;;;26.80;97.20;;;;;;5090755;28;20186;-70
2023/07/30 01:52:15;;;;;;;;;;;27.40;94.20;;;;;;5091693;28;20157;-71
2023/07/30 01:54:42;;;;;;;;;;;27.40;94.70;;;;;;5090825;28;20190;-71
2023/07/30 01:57:09;;;;;;;;;;;27.60;93.40;;;;;;5091259;28;20145;-70
2023/07/30 01:59:35;;;;;;;;;;;27.60;94.60;;;;;;5091925;28;20179;-71
2023/07/30 02:02:02;;;;;;;;;;;27.80;93.70;;;;;;5073088;28;20575;-72
2023/07/30 02:04:32;;;;;;;;;;;28.20;92.00;;;;;;5086307;28;20155;-71
2023/07/30 02:06:59;;;;;;;;;;;28.10;91.10;;;;;;5081293;28;20181;-73
2023/07/30 02:09:25;;;;;;;;;;;27.30;93.30;;;;;;5080070;28;20755;-70
2023/07/30 02:11:52;;;;;;;;;;;27.50;94.10;;;;;;5083622;28;20198;-70
2023/07/30 02:14:19;;;;;;;;;;;27.80;91.40;;;;;;5081730;28;20206;-72
2023/07/30 02:16:48;;;;;;;;;;;27.90;87.20;;;;;;5079774;28;20150;-70
2023/07/30 02:19:15;;;;;;;;;;;27.90;88.60;;;;;;5081212;28;20173;-70
2023/07/30 02:21:42;;;;;;;;;;;28.10;84.90;;;;;;5080187;28;20170;-70
2023/07/30 02:24:12;;;;;;;;;;;28.10;83.60;;;;;;5080186;28;20170;-72
2023/07/30 02:26:39;;;;;;;;;;;27.70;88.10;;;;;;5081392;28;20492;-71
2023/07/30 02:29:06;;;;;;;;;;;27.40;90.60;;;;;;5080447;28;20676;-71
2023/07/30 02:31:35;;;;;;;;;;;27.10;90.50;;;;;;5091422;28;20617;-72
2023/07/30 02:34:02;;;;;;;;;;;27.00;91.10;;;;;;5072607;28;20198;-72
2023/07/30 02:36:32;;;;;;;;;;;27.20;92.70;;;;;;5084640;28;20811;-72
2023/07/30 02:38:58;;;;;;;;;;;27.70;90.90;;;;;;5086347;28;20184;-72
2023/07/30 02:41:25;;;;;;;;;;;28.10;90.60;;;;;;5090736;28;20167;-72
2023/07/30 02:43:52;;;;;;;;;;;28.10;85.50;;;;;;5092876;28;20198;-72
2023/07/30 02:46:18;;;;;;;;;;;28.20;80.20;;;;;;5092579;28;20619;-72
2023/07/30 02:48:45;;;;;;;;;;;28.00;81.20;;;;;;5079824;28;20283;-71
2023/07/30 02:51:12;;;;;;;;;;;27.90;79.90;;;;;;5072914;28;20150;-71
2023/07/30 02:53:38;;;;;;;;;;;28.00;80.00;;;;;;5074942;28;20174;-71
2023/07/30 02:56:05;;;;;;;;;;;27.80;76.70;;;;;;5087368;28;20175;-72
2023/07/30 02:58:32;;;;;;;;;;;28.30;75.20;;;;;;5059359;28;20177;-71
2023/07/30 03:01:05;;;;;;;;;;;28.50;70.40;;;;;;5084530;28;20527;-71
2023/07/30 03:03:32;;;;;;;;;;;28.70;71.50;;;;;;5090294;28;20655;-71
2023/07/30 03:06:00;;;;;;;;;;;28.80;68.60;;;;;;5069380;28;20183;-71
2023/07/30 03:08:27;;;;;;;;;;;28.70;61.90;;;;;;5090985;28;20232;-70
2023/07/30 03:10:53;;;;;;;;;;;28.70;58.50;;;;;;5091329;28;20174;-70
2023/07/30 03:13:21;;;;;;;;;;;28.70;56.20;;;;;;5090610;28;20152;-69
2023/07/30 03:15:48;;;;;;;;;;;28.60;53.20;;;;;;5090418;28;20217;-69
2023/07/30 03:18:14;;;;;;;;;;;28.70;54.80;;;;;;5091418;28;20167;-69
2023/07/30 03:20:41;;;;;;;;;;;29.00;54.30;;;;;;5081835;28;20168;-70
2023/07/30 03:23:08;;;;;;;;;;;28.90;53.20;;;;;;5074718;28;20259;-69
2023/07/30 03:25:34;;;;;;;;;;;28.90;51.40;;;;;;5084620;28;20162;-70
2023/07/30 03:28:01;;;;;;;;;;;28.60;48.70;;;;;;5076430;28;20180;-70
2023/07/30 03:30:28;;;;;;;;;;;28.00;48.10;;;;;;5090831;28;20658;-69
2023/07/30 03:32:54;;;;;;;;;;;28.30;49.10;;;;;;5090973;28;20263;-69
2023/07/30 03:35:21;;;;;;;;;;;28.40;48.90;;;;;;5090133;28;20632;-69
2023/07/30 03:37:48;;;;;;;;;;;28.00;47.50;;;;;;5090903;28;20159;-69
2023/07/30 03:43:17;;;;;;;;;;;28.00;47.20;;;;;;5093256;28;20365;-70
2023/07/30 03:45:44;;;;;;;;;;;28.20;47.50;;;;;;5093514;28;20746;-69
2023/07/30 03:48:11;;;;;;;;;;;28.10;47.80;;;;;;5094768;28;20278;-70
2023/07/30 03:50:37;;;;;;;;;;;28.40;47.80;;;;;;5093777;28;20182;-68
2023/07/30 03:53:04;;;;;;;;;;;28.50;47.20;;;;;;5094630;28;20171;-69
2023/07/30 03:55:31;;;;;;;;;;;28.80;47.20;;;;;;5093791;28;20175;-68
2023/07/30 03:57:58;;;;;;;;;;;28.90;45.00;;;;;;5093685;28;20179;-71
2023/07/30 04:00:25;;;;;;;;;;;28.80;45.40;;;;;;5094070;28;20221;-70
2023/07/30 04:02:52;;;;;;;;;;;28.40;43.80;;;;;;5093771;28;20185;-71
2023/07/30 04:05:18;;;;;;;;;;;28.20;45.10;;;;;;5093417;28;20170;-70
2023/07/30 04:07:45;;;;;;;;;;;27.70;44.10;;;;;;5091936;28;20188;-72
2023/07/30 04:10:12;;;;;;;;;;;27.80;43.80;;;;;;5093321;28;20211;-74
2023/07/30 04:12:38;;;;;;;;;;;27.70;44.60;;;;;;5093337;28;20167;-73
2023/07/30 04:15:05;;;;;;;;;;;27.70;43.80;;;;;;5085505;28;20172;-73
2023/07/30 04:17:32;;;;;;;;;;;27.70;45.80;;;;;;5086429;28;20180;-74
2023/07/30 04:19:59;;;;;;;;;;;28.00;45.70;;;;;;5073277;28;20171;-71
2023/07/30 04:22:25;;;;;;;;;;;27.80;45.20;;;;;;5086820;28;21619;-72
2023/07/30 04:24:52;;;;;;;;;;;27.70;43.00;;;;;;5076266;28;20163;-74
2023/07/30 04:27:19;;;;;;;;;;;27.60;42.00;;;;;;5073729;28;20148;-73
2023/07/30 04:29:46;;;;;;;;;;;27.50;43.80;;;;;;5074156;28;20353;-72
2023/07/30 04:32:12;;;;;;;;;;;27.70;45.00;;;;;;5074277;28;20152;-73
2023/07/30 04:34:39;;;;;;;;;;;27.60;43.30;;;;;;5078253;28;20210;-72
2023/07/30 04:37:06;;;;;;;;;;;27.70;42.80;;;;;;5089183;28;20170;-71
2023/07/30 04:39:33;;;;;;;;;;;27.80;41.60;;;;;;5075776;28;20193;-71
2023/07/30 04:42:00;;;;;;;;;;;27.70;42.70;;;;;;5093447;28;20223;-70
2023/07/30 04:44:26;;;;;;;;;;;27.60;42.50;;;;;;5093458;28;20215;-73
2023/07/30 04:46:56;;;;;;;;;;;27.60;40.70;;;;;;5093784;28;20269;-70
2023/07/30 04:49:23;;;;;;;;;;;27.60;40.60;;;;;;5074539;28;20205;-71
2023/07/30 04:51:49;;;;;;;;;;;27.70;38.20;;;;;;5092966;28;20189;-74
2023/07/30 04:54:16;;;;;;;;;;;27.70;37.00;;;;;;5093593;28;20282;-71
2023/07/30 04:56:43;;;;;;;;;;;27.60;37.90;;;;;;5092888;28;20184;-71
2023/07/30 04:59:10;;;;;;;;;;;27.60;35.60;;;;;;5071848;28;20180;-71
2023/07/30 05:01:36;;;;;;;;;;;27.50;33.70;;;;;;5090812;28;20580;-68
2023/07/30 05:04:03;;;;;;;;;;;27.40;33.30;;;;;;5091936;28;20178;-73
2023/07/30 05:06:33;;;;;;;;;;;27.20;32.80;;;;;;5093090;28;20608;-70
2023/07/30 05:08:59;;;;;;;;;;;26.90;32.70;;;;;;5091646;28;20213;-72
2023/07/30 05:11:26;;;;;;;;;;;26.90;32.50;;;;;;5074061;28;20630;-74
2023/07/30 05:13:53;;;;;;;;;;;27.00;34.20;;;;;;5092613;28;20242;-75
2023/07/30 05:16:20;;;;;;;;;;;27.00;32.10;;;;;;5092980;28;20191;-75
2023/07/30 05:18:46;;;;;;;;;;;27.00;32.10;;;;;;5091667;28;20168;-75
2023/07/30 05:21:13;;;;;;;;;;;27.10;32.90;;;;;;5074873;28;20165;-75
2023/07/30 05:23:40;;;;;;;;;;;27.00;31.00;;;;;;5082741;28;20219;-75
2023/07/30 05:26:06;;;;;;;;;;;27.00;30.60;;;;;;5072244;28;20178;-74
2023/07/30 05:28:33;;;;;;;;;;;26.90;29.60;;;;;;5072379;28;20525;-75
2023/07/30 05:31:00;;;;;;;1.37;0.97;;;26.60;29.10;;;;;;5072408;28;20217;-74
2023/07/30 05:33:28;;;;;;;1.10;0.90;;;26.50;29.30;;;;;;5071761;28;20184;-75
2023/07/30 05:35:55;;;;;;;3.03;0.73;;;26.40;28.50;;;;;;5083099;28;20316;-74
2023/07/30 05:38:23;;;;;;;2.17;0.90;;;26.30;28.60;;;;;;5092798;28;20175;-74
2023/07/30 05:40:50;;;;;;;1.47;1.00;;;26.00;28.00;;;;;;5073848;28;20301;-72
2023/07/30 05:43:18;;;;;;;2.43;1.10;;;25.70;27.80;;;;;;5074240;28;20522;-74
2023/07/30 05:45:45;;;;;;;2.30;0.80;;;25.50;27.70;;;;;;5092092;28;20681;-74
2023/07/30 05:48:13;;;;;;;0.97;0.80;;;25.30;27.90;;;;;;5092331;28;20203;-76
2023/07/30 05:50:39;;;;;;;;;;;25.20;28.10;;;;;;5091023;28;20587;-75
2023/07/30 05:53:06;;;;;;;;;;;25.10;29.40;;;;;;5090619;28;20198;-74
2023/07/30 05:55:33;;;;;;;;;;;25.00;28.70;;;;;;5090980;28;20196;-74
2023/07/30 05:57:59;;;;;;;;;;;24.80;28.70;;;;;;5091264;28;20622;-74
2023/07/30 06:00:26;;;;;;;;;;;24.80;28.90;;;;;;5091509;28;20161;-74
2023/07/30 06:02:53;;;;;;;;;;;24.70;28.90;;;;;;5072182;28;20678;-75
2023/07/30 06:05:20;;;;;;;;;;;24.70;29.80;;;;;;5090779;28;20177;-75
2023/07/30 06:07:46;;;;;;;;;;;24.70;28.80;;;;;;5090924;28;20216;-74
2023/07/30 06:10:13;;;;;;;;;;;24.70;29.00;;;;;;5090760;28;20238;-74
2023/07/30 06:12:40;;;;;;;;;;;24.60;29.60;;;;;;5090811;28;20213;-73
2023/07/30 06:15:07;;;;;;;;;;;24.50;30.60;;;;;;5052744;28;20508;-73
2023/07/30 06:17:34;;;;;;;;;;;24.40;30.60;;;;;;5078673;28;20175;-73
2023/07/30 06:20:01;;;;;;;;;;;24.30;30.60;;;;;;5084376;28;20661;-75
2023/07/30 06:22:28;;;;;;;;;;;24.20;30.50;;;;;;5070964;28;20176;-73
2023/07/30 06:24:55;;;;;;;;;;;24.10;30.80;;;;;;5090029;28;20150;-73
2023/07/30 06:27:22;;;;;;;;;;;24.10;31.60;;;;;;5091326;28;20159;-73
2023/07/30 06:29:49;;;;;;;;;;;24.00;31.50;;;;;;5090776;28;20272;-75
2023/07/30 06:32:16;;;;;;;;;;;23.90;31.90;;;;;;5091731;28;20170;-75
2023/07/30 06:34:43;;;;;;;;;;;23.90;31.90;;;;;;5091636;28;20661;-77
2023/07/30 06:37:09;;;;;;;;;;;23.70;33.00;;;;;;5072478;28;20189;-73
2023/07/30 06:39:36;;;;;;;;;;;23.60;33.40;;;;;;5090891;28;20567;-75
2023/07/30 06:42:03;;;;;;;;;;;23.50;34.20;;;;;;5090469;28;20188;-73
2023/07/30 06:44:31;;;;;;;;;;;23.40;34.80;;;;;;5090592;28;20573;-73
2023/07/30 06:46:58;;;;;;;;;;;23.40;35.10;;;;;;5090876;28;20212;-75
2023/07/30 06:49:25;;;;;;;;;;;23.30;35.60;;;;;;5090106;28;20662;-73
2023/07/30 06:51:52;;;;;;;;;;;23.20;36.30;;;;;;5078513;28;20146;-71
2023/07/30 06:54:19;;;;;;;;;;;23.20;36.50;;;;;;5089403;28;20174;-73
2023/07/30 06:56:46;;;;;;;;;;;23.10;36.00;;;;;;5089611;28;20269;-71
2023/07/30 06:59:13;;;;;;;;;;;23.00;37.20;;;;;;5090451;28;20186;-70
2023/07/30 07:01:40;;;;;;;;;;;22.90;37.90;;;;;;5090202;28;20148;-72
2023/07/30 07:04:06;;;;;;;;;;;22.70;39.00;;;;;;5090691;28;20146;-75
2023/07/30 07:06:33;;;;;;;;;;;22.60;38.90;;;;;;5091136;28;20171;-75
2023/07/30 07:09:00;;;;;;;;;;;22.60;39.90;;;;;;5090570;28;20648;-73
2023/07/30 07:11:27;;;;;;;;;;;22.40;40.20;;;;;;5090699;28;20162;-75
2023/07/30 07:17:00;;;;;;;;;;;22.10;42.60;;;;;;5094125;28;20221;-75
2023/07/30 07:19:27;;;;;;;;;;;22.00;44.20;;;;;;5095006;28;20632;-76
2023/07/30 07:21:54;;;;;;;;;;;21.80;44.70;;;;;;5095153;28;20241;-76
2023/07/30 07:24:21;;;;;;;;;;;21.90;44.40;;;;;;5094722;28;20153;-71
2023/07/30 07:26:50;;;;;;;;;;;21.80;44.90;;;;;;5076429;28;20280;-74
2023/07/30 07:29:17;;;;;;;;;;;21.80;44.80;;;;;;5096023;28;20211;-76
2023/07/30 07:31:45;;;;;;;;;;;21.70;45.10;;;;;;5076442;28;20174;-75
2023/07/30 07:34:12;;;;;;;;;;;21.60;46.40;;;;;;5095837;28;20170;-72
2023/07/30 07:36:39;;;;;;;;;;;21.50;46.50;;;;;;5078132;28;20205;-72
2023/07/30 07:39:09;;;;;;;;;;;21.40;48.50;;;;;;5095831;28;20181;-74
2023/07/30 07:41:36;;;;;;;;;;;21.30;48.30;;;;;;5096778;28;20181;-76
2023/07/30 07:44:03;;;;;;;;;;;21.20;49.60;;;;;;5065022;28;20250;-71
2023/07/30 07:46:30;;;;;;;;;;;21.00;51.20;;;;;;5094469;28;20177;-75
2023/07/30 07:48:57;;;;;;;;;;;20.90;53.00;;;;;;5094113;28;20315;-70
2023/07/30 07:51:24;;;;;;;;;;;20.70;54.80;;;;;;5094513;28;20159;-75
2023/07/30 07:53:50;;;;;;;;;;;20.50;57.60;;;;;;5088656;28;20189;-74
2023/07/30 07:56:17;;;;;;;;;;;20.40;58.30;;;;;;5076935;28;20158;-73
2023/07/30 07:58:44;;;;;;;;;;;20.30;60.80;;;;;;5080635;28;20169;-75
2023/07/30 08:01:11;;;;;;;;;;;20.10;62.90;;;;;;5094912;28;20172;-74
2023/07/30 08:03:38;;;;;;;;;;;20.00;65.40;;;;;;5094796;28;20158;-71
2023/07/30 08:06:11;;;;;;;;;;;19.80;68.50;;;;;;5090662;28;20239;-73
2023/07/30 08:08:39;;;;;;;;;;;19.70;71.80;;;;;;5084265;28;20207;-73
2023/07/30 08:11:09;;;;;;;;;;;19.60;75.10;;;;;;5083760;28;20151;-75
2023/07/30 08:13:36;;;;;;;;;;;19.50;82.50;;;;;;5083962;28;20166;-74
2023/07/30 08:16:03;;;;;;;;;;;19.50;80.10;;;;;;5082972;28;20229;-75
2023/07/30 08:18:30;;;;;;;;;;;19.40;80.40;;;;;;5071972;28;20154;-74
2023/07/30 08:20:57;;;;;;;;;;;19.40;83.00;;;;;;5094223;28;20142;-71
2023/07/30 08:23:24;;;;;;;;;;;19.40;83.70;;;;;;5095552;28;20157;-71
2023/07/30 08:25:51;;;;;;;;;;;19.40;83.90;;;;;;5095062;28;20125;-70
2023/07/30 08:28:18;;;;;;;;;;;19.30;85.60;;;;;;5095546;28;22109;-70
2023/07/30 08:30:45;;;;;;;;;;;19.30;85.10;;;;;;5095508;28;20177;-72
2023/07/30 08:33:12;;;;;;;;;;;19.30;87.00;;;;;;5094424;28;20159;-70
2023/07/30 08:35:39;;;;;;;;;;;19.30;87.70;;;;;;5095112;28;20183;-70
2023/07/30 08:38:05;;;;;;;;;;;19.50;87.50;;;;;;5094673;28;20194;-71
2023/07/30 08:40:32;;;;;;;;;;;19.40;87.60;;;;;;5094422;28;20143;-71
2023/07/30 08:42:59;;;;;;;;;;;19.50;88.30;;;;;;5094851;28;20142;-70
2023/07/30 08:45:26;;;;;;;;;;;19.70;86.40;;;;;;5094547;28;20277;-70
2023/07/30 08:47:53;;;;;;;;;;;19.80;86.50;;;;;;5094589;28;20204;-69
2023/07/30 08:50:24;;;;;;;;;;;19.80;86.60;;;;;;5082258;28;20190;-71
2023/07/30 08:52:51;;;;;;;;;;;19.80;86.90;;;;;;5094713;28;20220;-70
2023/07/30 08:55:19;;;;;;;;;;;19.70;88.70;;;;;;5094615;28;20130;-70
2023/07/30 08:57:46;;;;;;;;;;;19.70;89.70;;;;;;5093805;28;20575;-71
2023/07/30 09:00:15;;;;;;;;;;;19.80;90.20;;;;;;5081352;28;20159;-69
2023/07/30 09:02:44;;;;;;;;;;;19.80;90.50;;;;;;5093354;28;20192;-72
2023/07/30 09:05:11;;;;;;;;;;;19.80;91.10;;;;;;5076448;28;20524;-69
2023/07/30 09:07:38;;;;;;;;;;;19.60;92.00;;;;;;5094206;28;20131;-69
2023/07/30 09:10:05;;;;;;;;;;;19.70;92.40;;;;;;5093710;28;20219;-70
2023/07/30 09:12:33;;;;;;;;;;;19.70;93.00;;;;;;5093625;28;20149;-70
2023/07/30 09:15:00;;;;;;;;;;;19.60;93.80;;;;;;5076285;28;20145;-70
2023/07/30 09:17:27;;;;;;;;;;;19.60;94.30;;;;;;5093976;28;20160;-71
2023/07/30 09:19:54;;;;;;;;;;;19.50;95.20;;;;;;5093833;28;20180;-72
2023/07/30 09:22:25;;;;;;;;;;;19.50;95.20;;;;;;5093252;28;20167;-69
2023/07/30 09:24:52;;;;;;;;;;;19.50;95.70;;;;;;5092857;28;20524;-69
2023/07/30 09:27:23;;;;;;;;;;;19.60;95.30;;;;;;5092492;28;20647;-70
2023/07/30 09:29:53;;;;;;;;;;;19.60;95.20;;;;;;5093330;28;20186;-70
2023/07/30 09:32:20;;;;;;;;;;;19.50;96.10;;;;;;5093349;28;20144;-70
2023/07/30 09:34:48;;;;;;;;;;;19.50;96.20;;;;;;5093211;28;20158;-69
2023/07/30 09:37:15;;;;;;;;;;;19.40;97.10;;;;;;5074220;28;20505;-70
2023/07/30 09:39:42;;;;;;;;;;;19.30;97.60;;;;;;5092506;28;20172;-70
2023/07/30 09:42:09;;;;;;;;;;;19.20;98.50;;;;;;5093096;28;20143;-70
2023/07/30 09:44:39;;;;;;;;;;;19.10;98.90;;;;;;5092264;28;20187;-69
2023/07/30 09:47:09;;;;;;;;;;;19.00;99.80;;;;;;5092499;28;20231;-69
2023/07/30 09:49:37;;;;;;;;;;;19.00;99.90;;;;;;5093370;28;20186;-70
2023/07/30 09:52:04;;;;;;;;;;;18.90;99.90;;;;;;5092918;28;20257;-70
2023/07/30 09:54:32;;;;;;;;;;;18.80;99.90;;;;;;5095006;28;20147;-72
2023/07/30 09:56:59;;;;;;;;;;;18.70;99.90;;;;;;5095417;28;20192;-69
2023/07/30 09:59:30;;;;;;;;;;;18.70;99.90;;;;;;5094619;28;20551;-71
2023/07/30 10:01:57;;;;;;;;;;;18.60;99.90;;;;;;5093848;28;20136;-70
2023/07/30 10:04:25;;;;;;;;;;;18.50;99.90;;;;;;5076458;28;20129;-70
2023/07/30 10:07:11;;;;;;;;;;;18.40;99.90;;;;;;5095070;28;20163;-69
2023/07/30 10:09:43;;;;;;;;;;;18.20;99.90;;;;;;5093845;28;20165;-69
2023/07/30 10:12:11;;;;;;;;;;;18.20;99.90;;;;;;5095157;28;20600;-70
2023/07/30 10:14:38;;;;;;;;;;;18.20;99.90;;;;;;5095422;28;19992;-70
2023/07/30 10:17:05;;;;;;;;;;;18.10;99.90;;;;;;5094387;28;19974;-70
2023/07/30 10:19:32;;;;;;;;;;;18.10;99.90;;;;;;5091049;28;20134;-71
2023/07/30 10:22:19;;;;;;;;;;;18.00;99.90;;;;;;5055790;28;20014;-69
2023/07/30 10:25:06;;;;;;;;;;;18.00;99.90;;;;;;5072548;28;25056;-70
2023/07/30 10:27:40;;;;;;;;;;;17.80;99.90;;;;;;5072369;28;20594;-70
2023/07/30 10:30:14;;;;;;;;;;;17.70;99.90;;;;;;5081121;28;20278;-69
2023/07/30 10:32:57;;;;;;;;;;;17.60;99.90;;;;;;5092506;28;19964;-72
2023/07/30 10:35:42;;;;;;;;;;;17.50;99.90;;;;;;5073614;28;20750;-70
2023/07/30 10:38:27;;;;;;;;;;;17.30;99.90;;;;;;5092428;28;20159;-70
2023/07/30 10:41:16;;;;;;;;;;;17.20;99.90;;;;;;5073720;28;20016;-70
2023/07/30 10:43:46;;;;;;;;;;;17.10;99.90;;;;;;5091310;28;20588;-70
2023/07/30 10:46:14;;;;;;;;;;;16.90;99.90;;;;;;5092420;28;20017;-71
2023/07/30 10:48:41;;;;;;;;;;;16.70;99.90;;;;;;5092067;28;20524;-70
2023/07/30 10:51:16;;;;;;;;;;;16.50;99.90;;;;;;5096042;28;25056;-69
2023/07/30 10:53:46;;;;;;;;;;;16.50;99.90;;;;;;5095834;28;19963;-70
2023/07/30 10:56:14;;;;;;;;;;;16.40;99.90;;;;;;5096605;28;20149;-70
2023/07/30 10:58:41;;;;;;;;;;;16.30;99.90;;;;;;5095615;28;25080;-70
2023/07/30 11:01:08;;;;;;;;;;;16.30;99.90;;;;;;5096201;28;19971;-70
2023/07/30 11:03:36;;;;;;;;;;;16.20;99.90;;;;;;5096233;28;19974;-71
2023/07/30 11:06:03;;;;;;;;;;;16.00;99.90;;;;;;5096091;28;25074;-73
2023/07/30 11:08:33;;;;;;;;;;;15.90;99.90;;;;;;5077694;28;19995;-75
2023/07/30 11:11:00;;;;;;;;;;;15.70;99.90;;;;;;5096107;28;20060;-72
2023/07/30 11:13:27;;;;;;;;;;;15.60;99.90;;;;;;5096292;28;25101;-73
2023/07/30 11:15:54;;;;;;;;;;;15.40;99.90;;;;;;5095571;28;19967;-73
2023/07/30 11:18:21;;;;;;;;;;;15.30;99.90;;;;;;5095810;28;20070;-72
2023/07/30 11:20:49;;;;;;;;;;;15.10;99.90;;;;;;5095817;28;19968;-72
2023/07/30 11:23:22;;;;;;;;;;;15.00;99.90;;;;;;5095885;28;19995;-74
2023/07/30 11:25:50;;;;;;;;;;;14.90;99.90;;;;;;5095898;28;19979;-73
2023/07/30 11:28:33;;;;;;;;;;;14.80;99.90;;;;;;5095541;28;25158;-73
2023/07/30 11:31:10;;;;;;;;;;;14.70;99.90;;;;;;5095299;28;20010;-73
2023/07/30 11:33:40;;;;;;;;;;;14.70;99.90;;;;;;5095822;28;19960;-73
2023/07/30 11:36:07;;;;;;;;;;;14.60;99.90;;;;;;5056819;28;25065;-73
2023/07/30 11:38:34;;;;;;;;;;;14.60;99.90;;;;;;5057286;28;25070;-71
2023/07/30 11:41:02;;;;;;;;;;;14.50;99.90;;;;;;5089332;28;25101;-72
2023/07/30 11:43:29;;;;;;;;;;;14.40;99.90;;;;;;5095545;28;25064;-73
2023/07/30 11:46:15;;;;;;;;;;;14.20;99.90;;;;;;5076765;28;25126;-73
2023/07/30 11:48:44;;;;;;;;;;;14.10;99.90;;;;;;5094600;28;19992;-70
2023/07/30 11:51:27;;;;;;;;;;;14.00;99.90;;;;;;5094763;28;25090;-73
2023/07/30 11:53:55;;;;;;;;;;;13.90;99.90;;;;;;5076532;28;20376;-73
2023/07/30 11:56:23;;;;;;;;;;;13.80;99.90;;;;;;5076019;28;19915;-74
2023/07/30 11:58:51;;;;;;;;;;;13.70;99.90;;;;;;5094190;28;19970;-72
2023/07/30 12:01:19;;;;;;;;;;;13.60;99.90;;;;;;5074871;28;20325;-73
2023/07/30 12:03:46;;;;;;;;;;;13.50;99.90;;;;;;5094815;28;25178;-71
2023/07/30 12:06:13;;;;;;;;;;;13.50;99.90;;;;;;5076259;28;25133;-73
2023/07/30 12:08:40;;;;;;;;;;;13.40;99.90;;;;;;5094172;28;25080;-70
2023/07/30 12:11:08;;;;;;;;;;;13.40;99.90;;;;;;5080266;28;20447;-73
2023/07/30 12:13:43;;;;;;;;;;;13.30;99.90;;;;;;5094792;28;19986;-71
2023/07/30 12:16:11;;;;;;;;;;;13.30;99.90;;;;;;5094522;28;19969;-73
2023/07/30 12:18:39;;;;;;;;;;;13.20;99.90;;;;;;5094539;28;19915;-71
2023/07/30 12:21:07;;;;;;;;;;;13.10;99.90;;;;;;5075990;28;25075;-73
2023/07/30 12:23:34;;;;;;;;;;;13.10;99.90;;;;;;5093779;28;20370;-74
2023/07/30 12:26:04;;;;;;;;;;;13.00;99.90;;;;;;5071126;28;19915;-72
2023/07/30 12:28:36;;;;;;;;;;;12.90;99.90;;;;;;5094302;28;19960;-73
2023/07/30 12:31:03;;;;;;;;;;;12.80;99.90;;;;;;5093431;28;19911;-75
2023/07/30 12:33:30;;;;;;;;;;;12.80;99.90;;;;;;5093379;28;19978;-74
2023/07/30 12:35:57;;;;;;;;;;;12.70;99.90;;;;;;5075309;28;24064;-73
2023/07/30 12:38:25;;;;;;;;;;;12.70;99.90;;;;;;5093892;28;24115;-74
2023/07/30 12:40:52;;;;;;;;;;;12.70;99.90;;;;;;5093158;28;19914;-70
2023/07/30 12:43:20;;;;;;;;;;;12.60;99.90;;;;;;5093407;28;24061;-71
2023/07/30 12:45:47;;;;;;;;;;;12.60;99.90;;;;;;5093682;28;19916;-72
2023/07/30 12:48:14;;;;;;;;;;;12.60;99.90;;;;;;5093612;28;19956;-71
2023/07/30 12:50:41;;;;;;;;;;;12.50;99.90;;;;;;5093745;28;20079;-70
2023/07/30 12:53:08;;;;;;;;;;;12.40;99.90;;;;;;5093940;28;24053;-70
2023/07/30 12:55:35;;;;;;;;;;;12.40;99.90;;;;;;5092700;28;24055;-70
2023/07/30 12:58:03;;;;;;;;;;;12.30;99.90;;;;;;5093456;28;24153;-71
2023/07/30 13:00:29;;;;;;;;;;;12.30;99.90;;;;;;5093229;28;19908;-72
2023/07/30 13:02:57;;;;;;;;;;;12.30;99.90;;;;;;5093686;28;24083;-70
2023/07/30 13:05:23;;;;;;;;;;;12.20;99.90;;;;;;5092653;28;20333;-70
2023/07/30 13:07:50;;;;;;;;;;;12.20;99.90;;;;;;5093153;28;19919;-71
2023/07/30 13:10:17;;;;;;;;;;;12.20;99.90;;;;;;5093346;28;19957;-69
2023/07/30 13:12:44;;;;;;;;;;;12.20;99.90;;;;;;5093532;28;19910;-69
2023/07/30 13:15:11;;;;;;;;;;;12.10;99.90;;;;;;5090030;28;19908;-70
2023/07/30 13:17:38;;;;;;;;;;;12.10;99.90;;;;;;5093559;28;24132;-69
2023/07/30 13:20:06;;;;;;;;;;;12.00;99.90;;;;;;5092587;28;19916;-70
2023/07/30 13:22:33;;;;;;;;;;;12.00;99.90;;;;;;5075156;28;19962;-70
2023/07/30 13:24:59;;;;;;;;;;;12.00;99.90;;;;;;5093399;28;19908;-69
2023/07/30 13:27:26;;;;;;;;;;;11.90;99.90;;;;;;5092726;28;20331;-69
2023/07/30 13:29:53;;;;;;;;;;;11.90;99.90;;;;;;5092800;28;19955;-70
2023/07/30 13:32:20;;;;;;;;;;;11.80;99.90;;;;;;5092371;28;19961;-70
2023/07/30 13:34:47;;;;;;;;;;;11.80;99.90;;;;;;5093086;28;25118;-70
2023/07/30 13:37:14;;;;;;;;;;;11.70;99.90;;;;;;5074644;28;24065;-70
2023/07/30 13:39:41;;;;;;;;;;;11.60;99.90;;;;;;5092269;28;24092;-72
2023/07/30 13:42:07;;;;;;;;;;;11.60;99.90;;;;;;5092547;28;19930;-70
2023/07/30 13:44:34;;;;;;;;;;;11.60;99.90;;;;;;5092699;28;19984;-71
2023/07/30 13:47:01;;;;;;;;;;;11.50;99.90;;;;;;5092736;28;19931;-69
2023/07/30 13:49:28;;;;;;;;;;;11.60;99.90;;;;;;5092379;28;20381;-70
2023/07/30 13:51:55;;;;;;;;;;;11.50;99.90;;;;;;5092112;28;24147;-70
2023/07/30 13:54:22;;;;;;;;;;;11.60;99.90;;;;;;5092250;28;20365;-69
2023/07/30 13:56:49;;;;;;;;;;;11.60;99.90;;;;;;5092610;28;24081;-70
2023/07/30 13:59:16;;;;;;;;;;;11.60;99.90;;;;;;5092506;28;20006;-70
2023/07/30 14:01:43;;;;;;;;;;;11.60;99.90;;;;;;5091547;28;19912;-72
2023/07/30 14:04:09;;;;;;;;;;;11.60;99.90;;;;;;5092345;28;19995;-73
2023/07/30 14:06:36;;;;;;;;;;;11.50;99.90;;;;;;5092505;28;19908;-71
2023/07/30 14:09:04;;;;;;;;;;;11.50;99.90;;;;;;5092279;28;19915;-71
2023/07/30 14:11:31;;;;;;;;;;;11.50;99.90;;;;;;5091595;28;19908;-72
2023/07/30 14:13:58;;;;;;;;;;;11.50;99.90;;;;;;5091923;28;25111;-71
2023/07/30 14:16:25;;;;;;;;;;;11.50;99.90;;;;;;5092453;28;19908;-70
2023/07/30 14:18:52;;;;;;;;;;;11.50;99.90;;;;;;5092801;28;24096;-73
2023/07/30 14:21:18;;;;;;;;;;;11.50;99.90;;;;;;5092540;28;25029;-71
2023/07/30 14:23:45;;;;;;;;;;;11.40;99.90;;;;;;5092126;28;25061;-71